Terminal Aerodrome Forecast
Issued by NWS Pittsburgh, PA

Current Version | Previous Version | Text Only | Print | Product List | Glossary Off
Versions: 1 2 3 4 5 6 7 8 9 10 11 12 13 14 15 16 17 18 19 20 21 22 23

353
FTUS41 KPBZ 252330
TAFPIT
TAF
KPIT 252330Z 2600/2706 23007KT P6SM BKN100
     FM261200 20005KT P6SM BKN060
     FM261700 21007KT P6SM VCTS BKN050CB
     FM262300 22005KT P6SM BKN080=

USA.gov is the U.S. government's official web portal to all federal, state and local government web resources and services.